Terminal Aerodrome Forecast
Issued by NWS Wilmington, OH

Home | Current Version | Previous Version | Text Only | Print | Product List | Glossary On
Versions: 1 2 3 4 5 6 7 8 9 10 11 12 13 14 15 16 17 18 19 20 21
000
FTUS41 KILN 250533
TAFCVG
TAF
KCVG 250533Z 2506/2612 20006KT P6SM BKN220
     FM251400 18011KT P6SM OVC160
     FM252300 14009KT P6SM OVC090
     FM260500 15006KT P6SM -SHRA OVC060=

USA.gov is the U.S. government's official web portal to all federal, state and local government web resources and services.